Station Historical Data
 
Daily Summary for January 22, 2019 Units:  English    Metric   Both
« Previous Day
Next Day »
Daily Weekly Monthly Yearly Custom
  Current: High: Low: Average:
Temperature: 37.9 °F TemperatureF °F 29.5 °F 34.6 °F
Dew Point: 18.0 °F DewpointF °F 5.7 °F 11.4 °F
Humidity: 44% Humidity% 29% 38%
Wind Speed: 4.0mph WindSpeedMPHmph 0.0mph 1.2mph
Wind Gust: 5.0mph WindSpeedGustMPHmph - -
WindESE - - ESE
Pressure: 30.49 in PressureIn in 30.47 in -
Precipitation: 0.00 in      
Historical Graphs
 
 
Tabular Data for January 22, 2019
Time Temperature Dew Point Pressure Wind Wind Speed Wind Gust Humidity Rainfall Rate (Hourly)
TemperatureF °F DewpointF °F PressureIn in Calm     Humidity% HourlyPrecipIn in
00:04 31.6 °F 15.1 °F 30.53 in Calm     50% 0.00 in
00:09 31.5 °F 12.6 °F 30.52 in Calm   4.0 mph 45% 0.00 in
00:14 31.8 °F 11.8 °F 30.52 in SE 0.9 mph 7.0 mph 43% 0.00 in
00:19 32.2 °F 11.1 °F 30.52 in Calm   5.0 mph 41% 0.00 in
00:24 32.2 °F 11.1 °F 30.52 in Calm   5.0 mph 41% 0.00 in
00:29 32.4 °F 10.8 °F 30.52 in Calm   2.0 mph 40% 0.00 in
00:34 32.4 °F 10.2 °F 30.52 in SE 0.9 mph 6.0 mph 39% 0.00 in
00:39 32.5 °F 10.4 °F 30.52 in Calm   2.0 mph 39% 0.00 in
00:44 32.5 °F 9.7 °F 30.52 in SE 0.9 mph 6.0 mph 38% 0.00 in
00:49 32.5 °F 10.9 °F 30.52 in Calm     40% 0.00 in
00:54 32.7 °F 9.3 °F 30.52 in ESE 0.9 mph 8.0 mph 37% 0.00 in
00:59 32.7 °F 9.3 °F 30.52 in SE 2.0 mph 4.0 mph 37% 0.00 in
01:04 32.9 °F 9.5 °F 30.52 in Calm   1.0 mph 37% 0.00 in
01:09 32.7 °F 9.9 °F 30.52 in ESE 0.9 mph 4.0 mph 38% 0.00 in
01:14 32.7 °F 10.4 °F 30.52 in Calm   1.0 mph 39% 0.00 in
01:19 32.5 °F 10.4 °F 30.52 in Calm   1.0 mph 39% 0.00 in
01:24 32.5 °F 9.7 °F 30.52 in East 4.0 mph 4.0 mph 38% 0.00 in
01:29 32.7 °F 9.3 °F 30.52 in ESE 2.0 mph 4.0 mph 37% 0.00 in
01:34 32.7 °F 9.3 °F 30.53 in Calm   2.0 mph 37% 0.00 in
01:39 32.7 °F 8.8 °F 30.53 in SE 0.9 mph 5.0 mph 36% 0.00 in
01:44 32.5 °F 10.4 °F 30.53 in Calm   1.0 mph 39% 0.00 in
01:49 32.4 °F 9.0 °F 30.53 in Calm   7.0 mph 37% 0.00 in
01:54 32.4 °F 9.5 °F 30.53 in SE 0.9 mph 1.0 mph 38% 0.00 in
01:59 32.2 °F 9.5 °F 30.53 in Calm   6.0 mph 38% 0.00 in
02:04 32.2 °F 9.5 °F 30.53 in Calm   2.0 mph 38% 0.00 in
02:09 32.2 °F 9.5 °F 30.53 in ESE 0.9 mph 6.0 mph 38% 0.00 in
02:14 32.2 °F 10.0 °F 30.53 in SE 4.0 mph 5.0 mph 39% 0.00 in
02:19 32.2 °F 9.5 °F 30.53 in Calm   7.0 mph 38% 0.00 in
02:24 32.2 °F 9.5 °F 30.53 in Calm   4.0 mph 38% 0.00 in
02:29 32.0 °F 10.9 °F 30.53 in SE 0.9 mph 5.0 mph 41% 0.00 in
02:34 32.0 °F 9.3 °F 30.53 in Calm   7.0 mph 38% 0.00 in
02:39 32.0 °F 9.3 °F 30.53 in ESE 0.9 mph 8.0 mph 38% 0.00 in
02:44 32.2 °F 9.5 °F 30.53 in Calm   5.0 mph 38% 0.00 in
02:49 32.0 °F 9.9 °F 30.54 in Calm   2.0 mph 39% 0.00 in
02:54 31.8 °F 9.1 °F 30.54 in Calm   4.0 mph 38% 0.00 in
02:59 32.0 °F 9.3 °F 30.54 in SE 6.0 mph 6.0 mph 38% 0.00 in
03:04 32.2 °F 9.5 °F 30.54 in Calm   1.0 mph 38% 0.00 in
03:09 32.0 °F 9.9 °F 30.54 in Calm   5.0 mph 39% 0.00 in
03:14 31.8 °F 10.2 °F 30.54 in SE 0.9 mph 4.0 mph 40% 0.00 in
03:19 31.8 °F 10.2 °F 30.55 in Calm   2.0 mph 40% 0.00 in
03:24 31.6 °F 9.5 °F 30.55 in ESE 2.0 mph 2.0 mph 39% 0.00 in
03:29 31.6 °F 10.0 °F 30.55 in Calm     40% 0.00 in
03:34 31.6 °F 9.5 °F 30.55 in ESE 2.0 mph 5.0 mph 39% 0.00 in
03:39 31.6 °F 9.5 °F 30.55 in Calm   5.0 mph 39% 0.00 in
03:44 31.5 °F 9.3 °F 30.55 in Calm   6.0 mph 39% 0.00 in
03:49 31.5 °F 9.3 °F 30.55 in SE 2.0 mph 5.0 mph 39% 0.00 in
03:54 31.5 °F 9.3 °F 30.55 in Calm   1.0 mph 39% 0.00 in
03:59 31.3 °F 9.7 °F 30.55 in SE 2.0 mph 5.0 mph 40% 0.00 in
04:04 31.3 °F 9.1 °F 30.55 in Calm   2.0 mph 39% 0.00 in
04:09 31.1 °F 9.0 °F 30.55 in Calm   5.0 mph 39% 0.00 in
04:14 30.9 °F 8.8 °F 30.56 in SE 4.0 mph 5.0 mph 39% 0.00 in
04:19 30.9 °F 9.5 °F 30.56 in Calm   1.0 mph 40% 0.00 in
04:24 30.7 °F 8.1 °F 30.56 in Calm   2.0 mph 38% 0.00 in
04:29 30.7 °F 7.5 °F 30.57 in SE 4.0 mph 5.0 mph 37% 0.00 in
04:34 30.7 °F 8.1 °F 30.57 in Calm   5.0 mph 38% 0.00 in
04:39 30.7 °F 8.1 °F 30.57 in SE 0.9 mph 1.0 mph 38% 0.00 in
04:44 30.6 °F 7.9 °F 30.57 in Calm   5.0 mph 38% 0.00 in
04:49 30.6 °F 8.6 °F 30.58 in Calm     39% 0.00 in
04:54 30.6 °F 7.9 °F 30.58 in Calm   6.0 mph 38% 0.00 in
04:59 30.4 °F 8.4 °F 30.58 in Calm   4.0 mph 39% 0.00 in
05:04 30.4 °F 9.5 °F 30.58 in Calm   1.0 mph 41% 0.00 in
05:09 30.4 °F 8.4 °F 30.59 in Calm   2.0 mph 39% 0.00 in
05:14 30.2 °F 8.2 °F 30.59 in Calm     39% 0.00 in
05:19 30.4 °F 8.4 °F 30.59 in Calm   2.0 mph 39% 0.00 in
05:24 30.0 °F 7.5 °F 30.60 in ESE 2.0 mph 6.0 mph 38% 0.00 in
05:29 30.0 °F 8.1 °F 30.59 in Calm   2.0 mph 39% 0.00 in
05:34 29.8 °F 8.4 °F 30.60 in Calm   8.0 mph 40% 0.00 in
05:39 29.8 °F 8.4 °F 30.60 in Calm   2.0 mph 40% 0.00 in
05:44 29.8 °F 8.4 °F 30.59 in Calm   4.0 mph 40% 0.00 in
05:49 29.8 °F 8.4 °F 30.59 in Calm   6.0 mph 40% 0.00 in
05:54 29.8 °F 8.4 °F 30.59 in Calm   4.0 mph 40% 0.00 in
05:59 29.7 °F 8.2 °F 30.59 in Calm   1.0 mph 40% 0.00 in
06:04 29.7 °F 7.7 °F 30.59 in Calm   5.0 mph 39% 0.00 in
06:09 29.7 °F 8.2 °F 30.58 in East 2.0 mph 2.0 mph 40% 0.00 in
06:14 29.7 °F 7.7 °F 30.58 in East 4.0 mph 4.0 mph 39% 0.00 in
06:19 29.7 °F 8.2 °F 30.58 in SE 2.0 mph 6.0 mph 40% 0.00 in
06:24 29.7 °F 7.2 °F 30.58 in ESE 6.9 mph 7.0 mph 38% 0.00 in
06:29 29.7 °F 7.7 °F 30.58 in Calm   6.0 mph 39% 0.00 in
06:34 29.8 °F 7.3 °F 30.58 in Calm   4.0 mph 38% 0.00 in
06:39 29.8 °F 7.9 °F 30.58 in Calm   5.0 mph 39% 0.00 in
06:44 29.8 °F 7.9 °F 30.58 in Calm     39% 0.00 in
06:49 29.8 °F 7.3 °F 30.58 in SSE 6.9 mph 7.0 mph 38% 0.00 in
06:54 29.8 °F 7.3 °F 30.58 in SE 4.0 mph 11.0 mph 38% 0.00 in
06:59 30.0 °F 6.3 °F 30.59 in SE 2.0 mph 8.0 mph 36% 0.00 in
07:04 30.0 °F 6.3 °F 30.59 in SSE 0.9 mph 2.0 mph 36% 0.00 in
07:09 30.0 °F 7.0 °F 30.59 in Calm   4.0 mph 37% 0.00 in
07:14 30.0 °F 6.3 °F 30.59 in Calm   4.0 mph 36% 0.00 in
07:19 30.0 °F 6.3 °F 30.59 in East 4.0 mph 7.0 mph 36% 0.00 in
07:24 30.0 °F 6.3 °F 30.60 in SE 8.1 mph 9.0 mph 36% 0.00 in
07:29 30.0 °F 6.3 °F 30.60 in Calm   11.0 mph 36% 0.00 in
07:34 29.8 °F 6.1 °F 30.60 in Calm   5.0 mph 36% 0.00 in
07:39 29.7 °F 5.9 °F 30.60 in SE 0.9 mph 11.0 mph 36% 0.00 in
07:44 29.7 °F 5.9 °F 30.60 in Calm   2.0 mph 36% 0.00 in
07:49 29.5 °F 6.4 °F 30.61 in East 0.9 mph 1.0 mph 37% 0.00 in
07:54 29.5 °F 6.4 °F 30.61 in SE 2.0 mph 5.0 mph 37% 0.00 in
07:59 29.5 °F 6.4 °F 30.61 in Calm   5.0 mph 37% 0.00 in
08:04 29.5 °F 6.4 °F 30.61 in ESE 0.9 mph 6.0 mph 37% 0.00 in
08:09 29.5 °F 6.4 °F 30.61 in ESE 4.0 mph 6.0 mph 37% 0.00 in
08:14 29.5 °F 6.4 °F 30.62 in SE 2.0 mph 5.0 mph 37% 0.00 in
08:19 29.5 °F 6.4 °F 30.62 in ESE 4.0 mph 7.0 mph 37% 0.00 in
08:24 29.5 °F 6.4 °F 30.62 in ESE 0.9 mph 1.0 mph 37% 0.00 in
08:29 29.5 °F 6.4 °F 30.62 in Calm   5.0 mph 37% 0.00 in
08:34 29.5 °F 6.4 °F 30.62 in SE 2.0 mph 2.0 mph 37% 0.00 in
08:39 29.5 °F 6.4 °F 30.62 in ESE 2.0 mph 8.0 mph 37% 0.00 in
08:44 29.7 °F 6.6 °F 30.62 in Calm   7.0 mph 37% 0.00 in
08:49 29.8 °F 6.1 °F 30.62 in Calm   6.0 mph 36% 0.00 in
08:54 29.8 °F 6.8 °F 30.63 in Calm   2.0 mph 37% 0.00 in
08:59 30.0 °F 6.3 °F 30.63 in SE 2.0 mph 2.0 mph 36% 0.00 in
09:04 30.4 °F 7.9 °F 30.62 in Calm   1.0 mph 38% 0.00 in
09:09 30.6 °F 7.3 °F 30.63 in SE 4.0 mph 4.0 mph 37% 0.00 in
09:14 30.6 °F 6.1 °F 30.63 in ESE 4.0 mph 7.0 mph 35% 0.00 in
09:19 30.7 °F 6.3 °F 30.63 in SSE 0.9 mph 6.0 mph 35% 0.00 in
09:24 30.9 °F 6.4 °F 30.63 in Calm   8.0 mph 35% 0.00 in
09:29 31.1 °F 6.6 °F 30.63 in SSE 0.9 mph 5.0 mph 35% 0.00 in
09:34 31.5 °F 7.5 °F 30.63 in Calm   2.0 mph 36% 0.00 in
09:39 31.5 °F 6.3 °F 30.62 in East 0.9 mph 2.0 mph 34% 0.00 in
09:44 31.6 °F 6.4 °F 30.63 in SE 0.9 mph 7.0 mph 34% 0.00 in
09:49 32.0 °F 7.5 °F 30.62 in Calm   8.0 mph 35% 0.00 in
09:54 32.4 °F 6.4 °F 30.63 in ESE 2.0 mph 8.0 mph 33% 0.00 in
09:59 32.5 °F 5.9 °F 30.63 in SE 4.0 mph 9.0 mph 32% 0.00 in
10:04 32.7 °F 6.1 °F 30.62 in SE 4.9 mph 9.0 mph 32% 0.00 in
10:09 33.1 °F 6.4 °F 30.62 in Calm   7.0 mph 32% 0.00 in
10:14 33.4 °F 6.8 °F 30.62 in ESE 2.0 mph 4.0 mph 32% 0.00 in
10:19 34.0 °F 7.2 °F 30.62 in Calm   5.0 mph 32% 0.00 in
10:24 34.0 °F 7.2 °F 30.61 in SE 4.9 mph 9.0 mph 32% 0.00 in
10:29 33.6 °F 7.0 °F 30.61 in Calm   9.0 mph 32% 0.00 in
10:34 33.6 °F 6.3 °F 30.61 in Calm   5.0 mph 31% 0.00 in
10:39 34.0 °F 6.4 °F 30.62 in SSE 6.9 mph 14.0 mph 31% 0.00 in
10:44 34.0 °F 5.7 °F 30.62 in East 6.0 mph 6.0 mph 30% 0.00 in
10:49 34.3 °F 6.1 °F 30.62 in ESE 6.9 mph 10.0 mph 30% 0.00 in
10:54 34.5 °F 6.3 °F 30.62 in Calm   8.0 mph 30% 0.00 in
10:59 34.9 °F 6.6 °F 30.62 in Calm   7.0 mph 30% 0.00 in
11:04 35.2 °F 8.2 °F 30.62 in SSE 2.0 mph 8.0 mph 32% 0.00 in
11:09 35.4 °F 9.1 °F 30.61 in ESE 2.0 mph 6.0 mph 33% 0.00 in
11:14 35.8 °F 8.1 °F 30.61 in SE 4.0 mph 7.0 mph 31% 0.00 in
11:19 35.8 °F 7.3 °F 30.62 in Calm   6.0 mph 30% 0.00 in
11:24 36.1 °F 7.7 °F 30.62 in ESE 0.9 mph 1.0 mph 30% 0.00 in
11:29 36.1 °F 7.7 °F 30.61 in Calm   5.0 mph 30% 0.00 in
11:34 36.7 °F 9.5 °F 30.61 in Calm   2.0 mph 32% 0.00 in
11:39 36.9 °F 7.5 °F 30.61 in ESE 4.0 mph 6.0 mph 29% 0.00 in
11:44 37.0 °F 7.7 °F 30.60 in SE 4.0 mph 6.0 mph 29% 0.00 in
11:49 37.0 °F 9.1 °F 30.60 in SE 8.1 mph 9.0 mph 31% 0.00 in
11:54 37.0 °F 8.4 °F 30.60 in Calm   8.0 mph 30% 0.00 in
11:59 37.0 °F 8.4 °F 30.60 in ESE 2.0 mph 5.0 mph 30% 0.00 in
12:04 36.9 °F 8.2 °F 30.59 in SE 2.0 mph 6.0 mph 30% 0.00 in
12:09 36.7 °F 8.2 °F 30.59 in East 0.9 mph 10.0 mph 30% 0.00 in
12:14 36.9 °F 9.0 °F 30.59 in SE 0.9 mph 4.0 mph 31% 0.00 in
12:19 36.7 °F 9.0 °F 30.58 in SE 0.9 mph 5.0 mph 31% 0.00 in
12:24 36.7 °F 9.5 °F 30.58 in SE 0.9 mph 7.0 mph 32% 0.00 in
12:29 37.0 °F 10.6 °F 30.58 in Calm   4.0 mph 33% 0.00 in
12:34 37.4 °F 10.9 °F 30.58 in Calm   4.0 mph 33% 0.00 in
12:39 37.8 °F 11.3 °F 30.57 in SE 0.9 mph 5.0 mph 33% 0.00 in
12:44 37.8 °F 11.3 °F 30.56 in Calm   4.0 mph 33% 0.00 in
12:49 37.9 °F 12.0 °F 30.56 in Calm     34% 0.00 in
12:54 38.3 °F 11.7 °F 30.56 in SSE 2.0 mph 5.0 mph 33% 0.00 in
12:59 38.1 °F 10.2 °F 30.56 in East 0.9 mph 8.0 mph 31% 0.00 in
13:04 37.9 °F 10.8 °F 30.55 in ESE 0.9 mph 5.0 mph 32% 0.00 in
13:09 38.1 °F 10.2 °F 30.55 in ESE 2.0 mph 4.0 mph 31% 0.00 in
13:14 38.5 °F 11.8 °F 30.55 in SE 2.0 mph 5.0 mph 33% 0.00 in
13:19 38.7 °F 12.0 °F 30.55 in Calm   4.0 mph 33% 0.00 in
13:24 38.8 °F 11.5 °F 30.55 in ESE 0.9 mph 4.0 mph 32% 0.00 in
13:29 38.8 °F 10.8 °F 30.54 in Calm   4.0 mph 31% 0.00 in
13:34 38.7 °F 9.9 °F 30.54 in Calm   7.0 mph 30% 0.00 in
13:39 38.8 °F 11.5 °F 30.53 in Calm   2.0 mph 32% 0.00 in
13:44 39.2 °F 12.6 °F 30.53 in Calm   5.0 mph 33% 0.00 in
13:49 39.7 °F 12.9 °F 30.53 in Calm   4.0 mph 33% 0.00 in
13:54 40.3 °F 14.2 °F 30.53 in Calm   3.0 mph 34% 0.00 in
13:59 40.3 °F 12.7 °F 30.52 in SE 4.0 mph 4.0 mph 32% 0.00 in
14:04 40.3 °F 12.7 °F 30.52 in Calm   4.0 mph 32% 0.00 in
14:09 40.3 °F 13.5 °F 30.52 in ESE 2.0 mph 4.0 mph 33% 0.00 in
14:14 40.3 °F 14.2 °F 30.52 in Calm   5.0 mph 34% 0.00 in
14:19 40.5 °F 15.6 °F 30.52 in SE 0.9 mph 4.0 mph 36% 0.00 in
14:24 40.6 °F 15.1 °F 30.51 in SE 2.0 mph 4.0 mph 35% 0.00 in
14:29 40.6 °F 17.1 °F 30.51 in SSE 4.9 mph 5.0 mph 38% 0.00 in
14:34 40.8 °F 14.5 °F 30.51 in ESE 2.0 mph 7.0 mph 34% 0.00 in
14:39 40.8 °F 15.3 °F 30.51 in Calm   4.0 mph 35% 0.00 in
14:44 40.8 °F 16.0 °F 30.51 in Calm   1.0 mph 36% 0.00 in
14:49 40.8 °F 16.5 °F 30.50 in SE 0.9 mph 4.0 mph 37% 0.00 in
14:54 41.0 °F 17.4 °F 30.50 in SE 2.0 mph 2.0 mph 38% 0.00 in
14:59 40.8 °F 17.8 °F 30.50 in SE 2.0 mph 5.0 mph 39% 0.00 in
15:04 40.6 °F 17.1 °F 30.50 in SE 2.0 mph 7.0 mph 38% 0.00 in
15:09 40.6 °F 17.1 °F 30.50 in ESE 4.0 mph 5.0 mph 38% 0.00 in
15:14 40.6 °F 17.6 °F 30.50 in Calm   4.0 mph 39% 0.00 in
15:19 40.8 °F 17.8 °F 30.50 in Calm   4.0 mph 39% 0.00 in
15:24 40.6 °F 17.6 °F 30.50 in ESE 2.0 mph 2.0 mph 39% 0.00 in
15:29 40.5 °F 17.4 °F 30.50 in East 2.0 mph 8.0 mph 39% 0.00 in
15:34 40.5 °F 18.0 °F 30.49 in ESE 2.0 mph 5.0 mph 40% 0.00 in
15:39 40.5 °F 18.0 °F 30.49 in SSE 0.9 mph 6.0 mph 40% 0.00 in
15:44 40.3 °F 18.0 °F 30.50 in Calm   5.0 mph 40% 0.00 in
15:49 40.3 °F 18.5 °F 30.50 in East 4.0 mph 4.0 mph 41% 0.00 in
15:54 40.3 °F 19.0 °F 30.49 in SE 0.9 mph 5.0 mph 42% 0.00 in
15:59 39.9 °F 18.1 °F 30.49 in SE 0.9 mph 2.0 mph 41% 0.00 in
16:04 39.9 °F 17.6 °F 30.49 in Calm   5.0 mph 40% 0.00 in
16:09 39.7 °F 16.9 °F 30.49 in Calm   2.0 mph 39% 0.00 in
16:14 39.7 °F 16.9 °F 30.49 in Calm   4.0 mph 39% 0.00 in
16:19 39.6 °F 16.7 °F 30.49 in ESE 0.9 mph 2.0 mph 39% 0.00 in
16:24 39.6 °F 16.7 °F 30.49 in Calm     39% 0.00 in
16:29 39.7 °F 16.9 °F 30.49 in Calm   1.0 mph 39% 0.00 in
16:34 39.7 °F 17.4 °F 30.49 in ESE 4.0 mph 4.0 mph 40% 0.00 in
16:39 39.6 °F 17.8 °F 30.48 in ESE 2.0 mph 4.0 mph 41% 0.00 in
16:44 39.4 °F 17.1 °F 30.48 in Calm   9.0 mph 40% 0.00 in
16:49 39.4 °F 18.1 °F 30.48 in ESE 0.9 mph 2.0 mph 42% 0.00 in
16:54 39.2 °F 16.9 °F 30.48 in Calm   1.0 mph 40% 0.00 in
16:59 39.0 °F 17.2 °F 30.48 in Calm     41% 0.00 in
17:04 38.8 °F 16.5 °F 30.48 in Calm   4.0 mph 40% 0.00 in
17:09 38.7 °F 16.3 °F 30.48 in Calm   6.0 mph 40% 0.00 in
17:14 38.7 °F 16.3 °F 30.48 in SE 0.9 mph 6.0 mph 40% 0.00 in
17:19 38.7 °F 17.1 °F 30.48 in Calm   1.0 mph 41% 0.00 in
17:24 38.7 °F 16.3 °F 30.47 in ESE 2.0 mph 4.0 mph 40% 0.00 in
17:29 38.7 °F 17.1 °F 30.47 in Calm   1.0 mph 41% 0.00 in
17:34 38.5 °F 16.9 °F 30.48 in Calm   4.0 mph 41% 0.00 in
17:39 38.5 °F 17.4 °F 30.48 in Calm   1.0 mph 42% 0.00 in
17:44 38.5 °F 17.4 °F 30.48 in Calm   5.0 mph 42% 0.00 in
17:49 38.3 °F 17.2 °F 30.48 in Calm   4.0 mph 42% 0.00 in
17:54 38.3 °F 17.8 °F 30.48 in Calm     43% 0.00 in
17:59 38.3 °F 18.3 °F 30.48 in East 4.0 mph 4.0 mph 44% 0.00 in
18:04 38.1 °F 17.6 °F 30.47 in East 0.9 mph 4.0 mph 43% 0.00 in
18:09 38.1 °F 17.1 °F 30.47 in SE 4.9 mph 7.0 mph 42% 0.00 in
18:14 38.1 °F 17.1 °F 30.47 in ENE 0.9 mph 8.0 mph 42% 0.00 in
18:19 37.9 °F 16.9 °F 30.47 in Calm   4.0 mph 42% 0.00 in
18:24 37.9 °F 17.4 °F 30.47 in SE 4.9 mph 6.0 mph 43% 0.00 in
18:29 37.9 °F 17.4 °F 30.47 in Calm   6.0 mph 43% 0.00 in
18:34 37.9 °F 17.4 °F 30.47 in Calm   4.0 mph 43% 0.00 in
18:39 37.9 °F 17.4 °F 30.47 in East 0.9 mph 7.0 mph 43% 0.00 in
18:44 38.1 °F 18.1 °F 30.47 in ESE 0.9 mph 1.0 mph 44% 0.00 in
18:49 38.1 °F 18.1 °F 30.48 in Calm   7.0 mph 44% 0.00 in
18:54 38.1 °F 18.1 °F 30.48 in SSE 6.9 mph 8.0 mph 44% 0.00 in
18:59 37.9 °F 17.4 °F 30.48 in ESE 4.0 mph 9.0 mph 43% 0.00 in
19:04 37.9 °F 17.4 °F 30.48 in ESE 2.0 mph 4.0 mph 43% 0.00 in
19:09 37.8 °F 17.2 °F 30.48 in SE 4.0 mph 6.0 mph 43% 0.00 in
19:14 37.8 °F 17.2 °F 30.48 in Calm   5.0 mph 43% 0.00 in
19:19 37.9 °F 18.0 °F 30.49 in ENE 2.0 mph 6.0 mph 44% 0.00 in
19:24 37.9 °F 18.0 °F 30.49 in Calm   3.0 mph 44% 0.00 in
19:29 37.9 °F 18.0 °F 30.49 in Calm   7.0 mph 44% 0.00 in
19:34 37.9 °F 18.0 °F 30.49 in Calm   2.0 mph 44% 0.00 in
19:39 37.8 °F 17.8 °F 30.49 in SE 0.9 mph 6.0 mph 44% 0.00 in
19:44 37.8 °F 17.8 °F 30.49 in Calm   1.0 mph 44% 0.00 in
19:49 37.8 °F 17.8 °F 30.49 in SE 0.9 mph 4.0 mph 44% 0.00 in
19:54 37.8 °F 18.3 °F 30.49 in ESE 0.9 mph 1.0 mph 45% 0.00 in
19:59 37.8 °F 17.8 °F 30.49 in ESE 2.0 mph 5.0 mph 44% 0.00 in
20:04 37.8 °F 17.8 °F 30.49 in Calm   4.0 mph 44% 0.00 in
20:09 37.8 °F 17.2 °F 30.50 in ESE 2.0 mph 4.0 mph 43% 0.00 in
20:14 37.8 °F 18.3 °F 30.49 in Calm     45% 0.00 in
20:18 37.8 °F 17.8 °F 30.49 in SE 0.9 mph 1.0 mph 44% 0.00 in
20:24 37.8 °F 17.2 °F 30.48 in Calm   7.0 mph 43% 0.00 in
20:29 37.8 °F 17.2 °F 30.49 in SE 0.9 mph 6.0 mph 43% 0.00 in
20:34 37.8 °F 17.2 °F 30.49 in Calm   5.0 mph 43% 0.00 in
20:39 37.8 °F 17.8 °F 30.49 in Calm   5.0 mph 44% 0.00 in
20:44 37.8 °F 17.2 °F 30.48 in East 2.9 mph 6.0 mph 43% 0.00 in
20:49 37.8 °F 17.8 °F 30.48 in ESE 4.9 mph 6.0 mph 44% 0.00 in
20:54 37.9 °F 18.0 °F 30.48 in ESE 4.0 mph 5.0 mph 44% 0.00 in
20:59 37.9 °F 18.0 °F 30.49 in ESE 4.0 mph 5.0 mph 44% 0.00 in
Ellijay Weather
Compliments of Weather Underground - 2.25 mb